sensor_id;sensor_type;location;lat;lon;timestamp;temperature;humidity
24232;DHT22;12364;47.810;8.810;2023-10-08T04:30:50;14.00;87.80
24232;DHT22;12364;47.810;8.810;2023-10-08T04:33:18;14.00;87.90
24232;DHT22;12364;47.810;8.810;2023-10-08T04:35:46;14.00;87.90
24232;DHT22;12364;47.810;8.810;2023-10-08T04:38:19;14.00;87.90
24232;DHT22;12364;47.810;8.810;2023-10-08T04:40:49;14.00;88.10
24232;DHT22;12364;47.810;8.810;2023-10-08T04:43:21;14.00;88.00
24232;DHT22;12364;47.810;8.810;2023-10-08T04:45:56;14.00;88.00
24232;DHT22;12364;47.810;8.810;2023-10-08T04:48:24;14.00;88.00
24232;DHT22;12364;47.810;8.810;2023-10-08T04:50:51;14.00;87.80
24232;DHT22;12364;47.810;8.810;2023-10-08T04:53:29;14.00;88.00
24232;DHT22;12364;47.810;8.810;2023-10-08T04:56:04;14.00;87.80
24232;DHT22;12364;47.810;8.810;2023-10-08T04:58:40;14.00;87.80
24232;DHT22;12364;47.810;8.810;2023-10-08T05:01:08;14.00;87.90
24232;DHT22;12364;47.810;8.810;2023-10-08T05:03:45;13.90;88.50
24232;DHT22;12364;47.810;8.810;2023-10-08T05:06:28;13.90;87.90
24232;DHT22;12364;47.810;8.810;2023-10-08T05:11:47;13.90;88.00
24232;DHT22;12364;47.810;8.810;2023-10-08T05:14:21;13.90;87.80
24232;DHT22;12364;47.810;8.810;2023-10-08T05:17:01;14.00;88.00
24232;DHT22;12364;47.810;8.810;2023-10-08T05:19:37;14.00;87.80
24232;DHT22;12364;47.810;8.810;2023-10-08T05:22:10;14.00;87.80
24232;DHT22;12364;47.810;8.810;2023-10-08T05:24:55;14.00;87.70
24232;DHT22;12364;47.810;8.810;2023-10-08T05:27:52;14.00;87.70
24232;DHT22;12364;47.810;8.810;2023-10-08T05:30:20;13.90;87.70
24232;DHT22;12364;47.810;8.810;2023-10-08T05:33:05;13.90;87.70
24232;DHT22;12364;47.810;8.810;2023-10-08T05:35:36;13.90;87.70
24232;DHT22;12364;47.810;8.810;2023-10-08T05:38:11;14.00;87.80
24232;DHT22;12364;47.810;8.810;2023-10-08T05:40:43;14.00;87.70
24232;DHT22;12364;47.810;8.810;2023-10-08T05:46:11;14.00;87.80
24232;DHT22;12364;47.810;8.810;2023-10-08T05:48:58;14.00;87.80
24232;DHT22;12364;47.810;8.810;2023-10-08T05:51:47;14.00;87.80
24232;DHT22;12364;47.810;8.810;2023-10-08T05:54:18;14.00;87.80
24232;DHT22;12364;47.810;8.810;2023-10-08T05:57:06;14.00;87.70
24232;DHT22;12364;47.810;8.810;2023-10-08T05:59:33;13.90;87.60
24232;DHT22;12364;47.810;8.810;2023-10-08T06:02:06;13.90;87.80
24232;DHT22;12364;47.810;8.810;2023-10-08T06:04:57;13.80;87.80
24232;DHT22;12364;47.810;8.810;2023-10-08T06:07:48;13.80;88.00
24232;DHT22;12364;47.810;8.810;2023-10-08T06:10:29;13.80;88.30
24232;DHT22;12364;47.810;8.810;2023-10-08T06:13:01;13.80;88.30
24232;DHT22;12364;47.810;8.810;2023-10-08T06:15:42;13.80;88.40
24232;DHT22;12364;47.810;8.810;2023-10-08T06:18:16;13.80;88.50
24232;DHT22;12364;47.810;8.810;2023-10-08T06:20:45;13.80;88.70
24232;DHT22;12364;47.810;8.810;2023-10-08T06:23:13;13.80;88.90
24232;DHT22;12364;47.810;8.810;2023-10-08T06:25:45;13.80;88.90
24232;DHT22;12364;47.810;8.810;2023-10-08T06:28:16;13.80;88.90
24232;DHT22;12364;47.810;8.810;2023-10-08T06:30:47;13.80;89.40
24232;DHT22;12364;47.810;8.810;2023-10-08T06:33:14;13.80;89.40
24232;DHT22;12364;47.810;8.810;2023-10-08T06:35:42;13.80;89.50
24232;DHT22;12364;47.810;8.810;2023-10-08T06:38:11;13.80;89.50
24232;DHT22;12364;47.810;8.810;2023-10-08T06:40:42;13.80;89.60
24232;DHT22;12364;47.810;8.810;2023-10-08T06:43:09;13.80;89.50
24232;DHT22;12364;47.810;8.810;2023-10-08T06:45:44;13.90;89.80
24232;DHT22;12364;47.810;8.810;2023-10-08T06:48:14;13.90;89.50
24232;DHT22;12364;47.810;8.810;2023-10-08T06:50:51;13.90;89.60
24232;DHT22;12364;47.810;8.810;2023-10-08T06:53:18;13.90;89.80
24232;DHT22;12364;47.810;8.810;2023-10-08T06:55:45;13.90;90.00
24232;DHT22;12364;47.810;8.810;2023-10-08T06:58:14;13.90;90.00
24232;DHT22;12364;47.810;8.810;2023-10-08T07:00:42;14.00;90.10
24232;DHT22;12364;47.810;8.810;2023-10-08T07:03:16;13.90;90.10
24232;DHT22;12364;47.810;8.810;2023-10-08T07:05:45;13.90;90.10
24232;DHT22;12364;47.810;8.810;2023-10-08T07:08:21;13.90;90.20
24232;DHT22;12364;47.810;8.810;2023-10-08T07:10:50;13.90;90.30
24232;DHT22;12364;47.810;8.810;2023-10-08T07:13:18;14.00;90.50
24232;DHT22;12364;47.810;8.810;2023-10-08T07:15:46;14.10;90.60
24232;DHT22;12364;47.810;8.810;2023-10-08T07:18:13;14.10;90.70
24232;DHT22;12364;47.810;8.810;2023-10-08T07:20:44;14.20;90.70
24232;DHT22;12364;47.810;8.810;2023-10-08T07:23:12;14.20;90.60
24232;DHT22;12364;47.810;8.810;2023-10-08T07:25:46;14.30;90.60
24232;DHT22;12364;47.810;8.810;2023-10-08T07:28:19;14.50;90.60
24232;DHT22;12364;47.810;8.810;2023-10-08T07:30:46;14.50;90.60
24232;DHT22;12364;47.810;8.810;2023-10-08T07:33:16;14.60;90.60
24232;DHT22;12364;47.810;8.810;2023-10-08T07:35:46;14.60;90.50
24232;DHT22;12364;47.810;8.810;2023-10-08T07:38:27;14.60;90.50
24232;DHT22;12364;47.810;8.810;2023-10-08T07:40:55;14.60;90.50
24232;DHT22;12364;47.810;8.810;2023-10-08T07:43:22;14.70;90.60
24232;DHT22;12364;47.810;8.810;2023-10-08T07:45:50;14.80;90.80
24232;DHT22;12364;47.810;8.810;2023-10-08T07:48:20;14.90;91.00
24232;DHT22;12364;47.810;8.810;2023-10-08T07:50:56;14.90;90.90
24232;DHT22;12364;47.810;8.810;2023-10-08T07:53:24;15.00;91.00
24232;DHT22;12364;47.810;8.810;2023-10-08T07:55:51;15.10;90.80
24232;DHT22;12364;47.810;8.810;2023-10-08T07:58:18;15.10;90.60
24232;DHT22;12364;47.810;8.810;2023-10-08T08:00:45;15.20;90.80
24232;DHT22;12364;47.810;8.810;2023-10-08T08:03:18;15.30;90.60
24232;DHT22;12364;47.810;8.810;2023-10-08T08:05:46;15.30;90.70
24232;DHT22;12364;47.810;8.810;2023-10-08T08:08:14;15.40;90.60
24232;DHT22;12364;47.810;8.810;2023-10-08T08:10:44;15.40;90.50
24232;DHT22;12364;47.810;8.810;2023-10-08T08:13:11;15.50;90.50
24232;DHT22;12364;47.810;8.810;2023-10-08T08:15:38;15.60;90.40
24232;DHT22;12364;47.810;8.810;2023-10-08T08:18:07;15.80;90.40
24232;DHT22;12364;47.810;8.810;2023-10-08T08:20:35;15.70;90.00
24232;DHT22;12364;47.810;8.810;2023-10-08T08:23:06;15.80;89.30
24232;DHT22;12364;47.810;8.810;2023-10-08T08:25:39;15.80;88.90
24232;DHT22;12364;47.810;8.810;2023-10-08T08:28:12;15.90;89.50
24232;DHT22;12364;47.810;8.810;2023-10-08T08:30:47;16.00;90.00
24232;DHT22;12364;47.810;8.810;2023-10-08T08:33:15;16.10;89.60
24232;DHT22;12364;47.810;8.810;2023-10-08T08:35:58;16.10;89.30
24232;DHT22;12364;47.810;8.810;2023-10-08T08:38:27;16.10;89.50
24232;DHT22;12364;47.810;8.810;2023-10-08T08:41:03;16.20;89.80
24232;DHT22;12364;47.810;8.810;2023-10-08T08:43:36;16.30;89.70
24232;DHT22;12364;47.810;8.810;2023-10-08T08:46:03;16.40;90.00
24232;DHT22;12364;47.810;8.810;2023-10-08T08:48:33;16.50;90.10
24232;DHT22;12364;47.810;8.810;2023-10-08T08:51:01;16.50;90.40
24232;DHT22;12364;47.810;8.810;2023-10-08T08:53:29;16.60;90.70
24232;DHT22;12364;47.810;8.810;2023-10-08T08:55:56;16.70;91.10
24232;DHT22;12364;47.810;8.810;2023-10-08T08:58:23;16.80;91.40
24232;DHT22;12364;47.810;8.810;2023-10-08T09:00:52;16.90;91.60
24232;DHT22;12364;47.810;8.810;2023-10-08T09:03:19;17.00;91.60
24232;DHT22;12364;47.810;8.810;2023-10-08T09:05:47;17.00;91.40
24232;DHT22;12364;47.810;8.810;2023-10-08T09:08:17;17.10;91.60
24232;DHT22;12364;47.810;8.810;2023-10-08T09:10:45;17.30;91.70
24232;DHT22;12364;47.810;8.810;2023-10-08T09:13:19;17.30;92.40
24232;DHT22;12364;47.810;8.810;2023-10-08T09:15:48;17.40;92.40
24232;DHT22;12364;47.810;8.810;2023-10-08T09:18:15;17.50;92.00
24232;DHT22;12364;47.810;8.810;2023-10-08T09:20:43;17.60;91.90
24232;DHT22;12364;47.810;8.810;2023-10-08T09:23:11;17.60;91.80
24232;DHT22;12364;47.810;8.810;2023-10-08T09:25:40;17.80;91.70
24232;DHT22;12364;47.810;8.810;2023-10-08T09:28:07;17.80;91.70
24232;DHT22;12364;47.810;8.810;2023-10-08T09:30:40;17.90;91.80
24232;DHT22;12364;47.810;8.810;2023-10-08T09:33:07;18.00;91.70
24232;DHT22;12364;47.810;8.810;2023-10-08T09:35:35;18.00;91.50
24232;DHT22;12364;47.810;8.810;2023-10-08T09:38:03;18.10;91.60
24232;DHT22;12364;47.810;8.810;2023-10-08T09:40:31;18.20;91.50
24232;DHT22;12364;47.810;8.810;2023-10-08T09:42:59;18.30;91.60
24232;DHT22;12364;47.810;8.810;2023-10-08T09:45:26;18.30;91.40
24232;DHT22;12364;47.810;8.810;2023-10-08T09:47:53;18.40;91.40
24232;DHT22;12364;47.810;8.810;2023-10-08T09:50:28;18.50;91.70
24232;DHT22;12364;47.810;8.810;2023-10-08T09:53:00;18.60;91.60
24232;DHT22;12364;47.810;8.810;2023-10-08T09:55:29;18.60;91.70
24232;DHT22;12364;47.810;8.810;2023-10-08T09:57:56;18.70;91.40
24232;DHT22;12364;47.810;8.810;2023-10-08T10:00:24;18.70;91.60
24232;DHT22;12364;47.810;8.810;2023-10-08T10:02:58;18.80;91.80
24232;DHT22;12364;47.810;8.810;2023-10-08T10:05:28;18.90;91.60
24232;DHT22;12364;47.810;8.810;2023-10-08T10:07:55;19.00;91.40
24232;DHT22;12364;47.810;8.810;2023-10-08T10:10:30;19.10;91.40
24232;DHT22;12364;47.810;8.810;2023-10-08T10:12:59;19.10;91.40
24232;DHT22;12364;47.810;8.810;2023-10-08T10:15:26;19.20;91.30
24232;DHT22;12364;47.810;8.810;2023-10-08T10:20:44;19.30;91.50
24232;DHT22;12364;47.810;8.810;2023-10-08T10:23:34;19.30;90.90
24232;DHT22;12364;47.810;8.810;2023-10-08T10:25:59;19.40;90.90
24232;DHT22;12364;47.810;8.810;2023-10-08T10:28:29;19.60;90.70
24232;DHT22;12364;47.810;8.810;2023-10-08T10:30:56;19.50;90.60
24232;DHT22;12364;47.810;8.810;2023-10-08T10:33:31;19.50;90.70
24232;DHT22;12364;47.810;8.810;2023-10-08T10:36:00;19.60;90.60
24232;DHT22;12364;47.810;8.810;2023-10-08T10:38:27;19.80;90.70
24232;DHT22;12364;47.810;8.810;2023-10-08T10:40:56;19.70;90.60
24232;DHT22;12364;47.810;8.810;2023-10-08T10:43:26;19.80;90.80
24232;DHT22;12364;47.810;8.810;2023-10-08T10:45:59;20.00;90.80
24232;DHT22;12364;47.810;8.810;2023-10-08T10:48:48;19.90;90.60
24232;DHT22;12364;47.810;8.810;2023-10-08T10:51:35;20.00;90.20
24232;DHT22;12364;47.810;8.810;2023-10-08T10:54:02;20.00;90.20
24232;DHT22;12364;47.810;8.810;2023-10-08T10:56:37;20.10;90.10
24232;DHT22;12364;47.810;8.810;2023-10-08T10:59:09;20.20;90.00
24232;DHT22;12364;47.810;8.810;2023-10-08T11:01:46;20.30;90.00
24232;DHT22;12364;47.810;8.810;2023-10-08T11:04:15;20.40;89.20
24232;DHT22;12364;47.810;8.810;2023-10-08T11:06:47;20.50;89.20
24232;DHT22;12364;47.810;8.810;2023-10-08T11:09:14;20.50;89.30
24232;DHT22;12364;47.810;8.810;2023-10-08T11:11:49;20.60;88.90
24232;DHT22;12364;47.810;8.810;2023-10-08T11:14:21;20.60;88.80
24232;DHT22;12364;47.810;8.810;2023-10-08T11:16:48;20.70;88.90
24232;DHT22;12364;47.810;8.810;2023-10-08T11:19:15;20.80;88.20
24232;DHT22;12364;47.810;8.810;2023-10-08T11:21:49;20.80;87.80
24232;DHT22;12364;47.810;8.810;2023-10-08T11:24:29;20.80;88.00
24232;DHT22;12364;47.810;8.810;2023-10-08T11:27:00;20.80;87.60
24232;DHT22;12364;47.810;8.810;2023-10-08T11:29:43;20.90;88.10
24232;DHT22;12364;47.810;8.810;2023-10-08T11:32:10;20.90;88.50
24232;DHT22;12364;47.810;8.810;2023-10-08T11:34:39;20.90;88.80
24232;DHT22;12364;47.810;8.810;2023-10-08T11:37:06;21.00;89.20
24232;DHT22;12364;47.810;8.810;2023-10-08T11:39:45;21.00;88.80
24232;DHT22;12364;47.810;8.810;2023-10-08T11:42:12;21.10;88.90
24232;DHT22;12364;47.810;8.810;2023-10-08T11:44:58;21.20;88.40
24232;DHT22;12364;47.810;8.810;2023-10-08T11:47:45;21.30;88.30
24232;DHT22;12364;47.810;8.810;2023-10-08T11:50:12;21.30;88.90
24232;DHT22;12364;47.810;8.810;2023-10-08T11:52:46;21.40;88.40
24232;DHT22;12364;47.810;8.810;2023-10-08T11:55:13;21.50;87.80
24232;DHT22;12364;47.810;8.810;2023-10-08T11:57:48;21.50;88.00
24232;DHT22;12364;47.810;8.810;2023-10-08T12:00:17;21.60;87.90
24232;DHT22;12364;47.810;8.810;2023-10-08T12:02:49;21.60;86.90
24232;DHT22;12364;47.810;8.810;2023-10-08T12:05:20;21.70;87.50
24232;DHT22;12364;47.810;8.810;2023-10-08T12:07:47;21.70;87.60
24232;DHT22;12364;47.810;8.810;2023-10-08T12:10:15;21.80;87.60
24232;DHT22;12364;47.810;8.810;2023-10-08T12:12:52;21.80;87.70
24232;DHT22;12364;47.810;8.810;2023-10-08T12:15:19;21.90;87.70
24232;DHT22;12364;47.810;8.810;2023-10-08T12:17:49;21.90;87.00
24232;DHT22;12364;47.810;8.810;2023-10-08T12:20:36;21.90;87.10
24232;DHT22;12364;47.810;8.810;2023-10-08T12:23:11;21.90;86.70
24232;DHT22;12364;47.810;8.810;2023-10-08T12:25:38;22.00;86.10
24232;DHT22;12364;47.810;8.810;2023-10-08T12:28:05;22.00;86.60
24232;DHT22;12364;47.810;8.810;2023-10-08T12:30:32;22.10;86.70
24232;DHT22;12364;47.810;8.810;2023-10-08T12:33:01;22.10;86.60
24232;DHT22;12364;47.810;8.810;2023-10-08T12:35:29;22.20;86.50
24232;DHT22;12364;47.810;8.810;2023-10-08T12:37:56;22.30;86.30
24232;DHT22;12364;47.810;8.810;2023-10-08T12:40:24;22.30;85.20
24232;DHT22;12364;47.810;8.810;2023-10-08T12:42:51;22.40;84.10
24232;DHT22;12364;47.810;8.810;2023-10-08T12:45:18;22.40;84.70
24232;DHT22;12364;47.810;8.810;2023-10-08T12:47:49;22.40;85.60
24232;DHT22;12364;47.810;8.810;2023-10-08T12:50:17;22.50;85.70
24232;DHT22;12364;47.810;8.810;2023-10-08T12:52:44;22.50;86.20
24232;DHT22;12364;47.810;8.810;2023-10-08T12:55:19;22.50;84.90
24232;DHT22;12364;47.810;8.810;2023-10-08T12:57:53;22.50;84.10
24232;DHT22;12364;47.810;8.810;2023-10-08T13:00:22;22.50;84.80
24232;DHT22;12364;47.810;8.810;2023-10-08T13:02:50;22.60;85.10
24232;DHT22;12364;47.810;8.810;2023-10-08T13:05:21;22.60;85.50
24232;DHT22;12364;47.810;8.810;2023-10-08T13:07:55;22.60;85.00
24232;DHT22;12364;47.810;8.810;2023-10-08T13:10:22;22.70;85.50
24232;DHT22;12364;47.810;8.810;2023-10-08T13:12:49;22.70;86.20
24232;DHT22;12364;47.810;8.810;2023-10-08T13:15:16;22.70;85.50
24232;DHT22;12364;47.810;8.810;2023-10-08T13:17:43;22.80;85.80
24232;DHT22;12364;47.810;8.810;2023-10-08T13:20:12;22.80;85.70
24232;DHT22;12364;47.810;8.810;2023-10-08T13:22:39;22.80;85.60
24232;DHT22;12364;47.810;8.810;2023-10-08T13:25:07;22.80;85.90
24232;DHT22;12364;47.810;8.810;2023-10-08T13:27:34;22.90;86.30
24232;DHT22;12364;47.810;8.810;2023-10-08T13:30:04;22.90;86.10
24232;DHT22;12364;47.810;8.810;2023-10-08T13:32:32;22.90;86.00
24232;DHT22;12364;47.810;8.810;2023-10-08T13:35:05;23.00;88.20
24232;DHT22;12364;47.810;8.810;2023-10-08T13:37:34;23.00;87.80
24232;DHT22;12364;47.810;8.810;2023-10-08T13:40:02;23.00;86.70
24232;DHT22;12364;47.810;8.810;2023-10-08T13:42:29;23.10;86.80
24232;DHT22;12364;47.810;8.810;2023-10-08T13:44:56;23.10;86.20
24232;DHT22;12364;47.810;8.810;2023-10-08T13:47:26;23.10;85.40
24232;DHT22;12364;47.810;8.810;2023-10-08T13:49:55;23.20;85.80
24232;DHT22;12364;47.810;8.810;2023-10-08T13:52:24;23.20;85.50
24232;DHT22;12364;47.810;8.810;2023-10-08T13:54:53;23.20;86.40
24232;DHT22;12364;47.810;8.810;2023-10-08T13:57:20;23.20;85.80
24232;DHT22;12364;47.810;8.810;2023-10-08T13:59:47;23.20;86.20
24232;DHT22;12364;47.810;8.810;2023-10-08T14:02:15;23.20;86.50
24232;DHT22;12364;47.810;8.810;2023-10-08T14:04:42;23.20;86.60
24232;DHT22;12364;47.810;8.810;2023-10-08T14:07:11;23.30;87.20
24232;DHT22;12364;47.810;8.810;2023-10-08T14:09:44;23.30;87.50
24232;DHT22;12364;47.810;8.810;2023-10-08T14:12:12;23.30;86.40
24232;DHT22;12364;47.810;8.810;2023-10-08T14:14:41;23.30;86.80
24232;DHT22;12364;47.810;8.810;2023-10-08T14:17:11;23.30;87.10
24232;DHT22;12364;47.810;8.810;2023-10-08T14:20:04;23.30;87.00
24232;DHT22;12364;47.810;8.810;2023-10-08T14:22:39;23.40;87.50
24232;DHT22;12364;47.810;8.810;2023-10-08T14:25:10;23.40;87.30
24232;DHT22;12364;47.810;8.810;2023-10-08T14:27:38;23.40;88.30
24232;DHT22;12364;47.810;8.810;2023-10-08T14:30:18;23.40;88.80
24232;DHT22;12364;47.810;8.810;2023-10-08T14:32:48;23.40;89.10
24232;DHT22;12364;47.810;8.810;2023-10-08T14:35:15;23.40;88.90
24232;DHT22;12364;47.810;8.810;2023-10-08T14:38:01;23.40;88.20
24232;DHT22;12364;47.810;8.810;2023-10-08T14:40:46;23.30;90.00
24232;DHT22;12364;47.810;8.810;2023-10-08T14:43:32;23.30;90.00
24232;DHT22;12364;47.810;8.810;2023-10-08T14:46:01;23.30;90.20
24232;DHT22;12364;47.810;8.810;2023-10-08T14:48:31;23.30;89.70
24232;DHT22;12364;47.810;8.810;2023-10-08T14:51:02;23.30;89.40
24232;DHT22;12364;47.810;8.810;2023-10-08T14:53:34;23.30;90.00
24232;DHT22;12364;47.810;8.810;2023-10-08T14:56:01;23.30;90.30
24232;DHT22;12364;47.810;8.810;2023-10-08T14:58:31;23.30;90.40
24232;DHT22;12364;47.810;8.810;2023-10-08T15:00:58;23.30;89.70
24232;DHT22;12364;47.810;8.810;2023-10-08T15:03:25;23.30;89.30
24232;DHT22;12364;47.810;8.810;2023-10-08T15:05:54;23.40;88.40
24232;DHT22;12364;47.810;8.810;2023-10-08T15:08:22;23.40;90.10
24232;DHT22;12364;47.810;8.810;2023-10-08T15:10:50;23.40;90.20
24232;DHT22;12364;47.810;8.810;2023-10-08T15:13:17;23.40;90.00
24232;DHT22;12364;47.810;8.810;2023-10-08T15:15:44;23.40;90.40
24232;DHT22;12364;47.810;8.810;2023-10-08T15:18:12;23.40;90.60
24232;DHT22;12364;47.810;8.810;2023-10-08T15:20:41;23.40;90.30
24232;DHT22;12364;47.810;8.810;2023-10-08T15:23:10;23.30;90.20
24232;DHT22;12364;47.810;8.810;2023-10-08T15:25:39;23.30;90.10
24232;DHT22;12364;47.810;8.810;2023-10-08T15:28:06;23.30;90.90
24232;DHT22;12364;47.810;8.810;2023-10-08T15:30:34;23.30;90.70
24232;DHT22;12364;47.810;8.810;2023-10-08T15:33:02;23.20;90.20
24232;DHT22;12364;47.810;8.810;2023-10-08T15:35:29;23.20;90.40
24232;DHT22;12364;47.810;8.810;2023-10-08T15:37:56;23.10;91.20
24232;DHT22;12364;47.810;8.810;2023-10-08T15:40:23;23.10;91.40
24232;DHT22;12364;47.810;8.810;2023-10-08T15:42:51;23.10;91.40
24232;DHT22;12364;47.810;8.810;2023-10-08T15:45:19;23.10;91.30
24232;DHT22;12364;47.810;8.810;2023-10-08T15:47:47;23.10;91.10
24232;DHT22;12364;47.810;8.810;2023-10-08T15:50:16;23.00;91.10
24232;DHT22;12364;47.810;8.810;2023-10-08T15:52:48;23.00;91.30
24232;DHT22;12364;47.810;8.810;2023-10-08T15:55:15;23.00;91.30
24232;DHT22;12364;47.810;8.810;2023-10-08T15:57:42;23.00;91.10
24232;DHT22;12364;47.810;8.810;2023-10-08T16:00:09;22.90;91.40
24232;DHT22;12364;47.810;8.810;2023-10-08T16:02:36;22.90;91.00
24232;DHT22;12364;47.810;8.810;2023-10-08T16:05:04;22.90;91.50
24232;DHT22;12364;47.810;8.810;2023-10-08T16:07:34;22.90;91.20
24232;DHT22;12364;47.810;8.810;2023-10-08T16:10:01;22.80;91.00
24232;DHT22;12364;47.810;8.810;2023-10-08T16:12:29;22.80;91.60
24232;DHT22;12364;47.810;8.810;2023-10-08T16:14:56;22.80;91.20
24232;DHT22;12364;47.810;8.810;2023-10-08T16:17:23;22.80;91.30
24232;DHT22;12364;47.810;8.810;2023-10-08T16:19:50;22.70;91.10
24232;DHT22;12364;47.810;8.810;2023-10-08T16:22:20;22.70;91.00
24232;DHT22;12364;47.810;8.810;2023-10-08T16:24:49;22.60;91.20
24232;DHT22;12364;47.810;8.810;2023-10-08T16:27:16;22.60;91.70
24232;DHT22;12364;47.810;8.810;2023-10-08T16:29:43;22.60;91.90
24232;DHT22;12364;47.810;8.810;2023-10-08T16:32:10;22.60;91.40
24232;DHT22;12364;47.810;8.810;2023-10-08T16:34:38;22.50;91.30
24232;DHT22;12364;47.810;8.810;2023-10-08T16:37:05;22.50;91.60
24232;DHT22;12364;47.810;8.810;2023-10-08T16:39:33;22.50;91.60
24232;DHT22;12364;47.810;8.810;2023-10-08T16:42:00;22.50;91.50
24232;DHT22;12364;47.810;8.810;2023-10-08T16:44:27;22.40;91.60
24232;DHT22;12364;47.810;8.810;2023-10-08T16:46:54;22.40;91.30
24232;DHT22;12364;47.810;8.810;2023-10-08T16:49:21;22.30;91.30
24232;DHT22;12364;47.810;8.810;2023-10-08T16:51:48;22.30;91.40
24232;DHT22;12364;47.810;8.810;2023-10-08T16:54:15;22.20;91.40
24232;DHT22;12364;47.810;8.810;2023-10-08T16:56:43;22.20;91.30
24232;DHT22;12364;47.810;8.810;2023-10-08T16:59:11;22.10;91.20
24232;DHT22;12364;47.810;8.810;2023-10-08T17:01:41;22.10;91.40
24232;DHT22;12364;47.810;8.810;2023-10-08T17:04:08;22.00;91.40
24232;DHT22;12364;47.810;8.810;2023-10-08T17:06:36;22.00;91.40
24232;DHT22;12364;47.810;8.810;2023-10-08T17:09:03;21.90;91.30
24232;DHT22;12364;47.810;8.810;2023-10-08T17:11:42;21.90;91.30
24232;DHT22;12364;47.810;8.810;2023-10-08T17:14:12;21.80;91.30
24232;DHT22;12364;47.810;8.810;2023-10-08T17:16:43;21.80;91.20
24232;DHT22;12364;47.810;8.810;2023-10-08T17:19:10;21.70;91.10
24232;DHT22;12364;47.810;8.810;2023-10-08T17:21:38;21.70;91.10
24232;DHT22;12364;47.810;8.810;2023-10-08T17:24:05;21.70;91.20
24232;DHT22;12364;47.810;8.810;2023-10-08T17:26:36;21.60;91.30
24232;DHT22;12364;47.810;8.810;2023-10-08T17:29:04;21.50;91.30
24232;DHT22;12364;47.810;8.810;2023-10-08T17:31:34;21.50;91.30
24232;DHT22;12364;47.810;8.810;2023-10-08T17:34:03;21.40;91.30
24232;DHT22;12364;47.810;8.810;2023-10-08T17:36:32;21.40;91.40
24232;DHT22;12364;47.810;8.810;2023-10-08T17:38:59;21.30;91.40
24232;DHT22;12364;47.810;8.810;2023-10-08T17:41:26;21.30;91.40
24232;DHT22;12364;47.810;8.810;2023-10-08T17:43:54;21.30;91.50
24232;DHT22;12364;47.810;8.810;2023-10-08T17:46:23;21.20;91.50
24232;DHT22;12364;47.810;8.810;2023-10-08T17:48:54;21.20;91.70
24232;DHT22;12364;47.810;8.810;2023-10-08T17:51:21;21.10;91.60
24232;DHT22;12364;47.810;8.810;2023-10-08T17:53:48;21.10;91.80
24232;DHT22;12364;47.810;8.810;2023-10-08T17:56:15;21.10;91.80
24232;DHT22;12364;47.810;8.810;2023-10-08T17:58:43;21.00;91.70
24232;DHT22;12364;47.810;8.810;2023-10-08T18:01:10;20.90;91.70
24232;DHT22;12364;47.810;8.810;2023-10-08T18:03:40;20.90;91.70
24232;DHT22;12364;47.810;8.810;2023-10-08T18:06:15;20.90;91.70
24232;DHT22;12364;47.810;8.810;2023-10-08T18:08:43;20.80;92.00
24232;DHT22;12364;47.810;8.810;2023-10-08T18:11:10;20.80;91.70
24232;DHT22;12364;47.810;8.810;2023-10-08T18:13:37;20.70;91.60
24232;DHT22;12364;47.810;8.810;2023-10-08T18:16:08;20.70;91.80
24232;DHT22;12364;47.810;8.810;2023-10-08T18:18:37;20.70;91.80
24232;DHT22;12364;47.810;8.810;2023-10-08T18:21:06;20.60;91.70
24232;DHT22;12364;47.810;8.810;2023-10-08T18:23:36;20.60;91.80
24232;DHT22;12364;47.810;8.810;2023-10-08T18:26:06;20.60;91.80
24232;DHT22;12364;47.810;8.810;2023-10-08T18:28:39;20.50;92.00
24232;DHT22;12364;47.810;8.810;2023-10-08T18:31:07;20.50;92.10
24232;DHT22;12364;47.810;8.810;2023-10-08T18:33:34;20.40;91.90
24232;DHT22;12364;47.810;8.810;2023-10-08T18:36:08;20.40;92.00
24232;DHT22;12364;47.810;8.810;2023-10-08T18:38:38;20.30;92.00
24232;DHT22;12364;47.810;8.810;2023-10-08T18:41:06;20.30;92.20
24232;DHT22;12364;47.810;8.810;2023-10-08T18:43:38;20.30;92.20
24232;DHT22;12364;47.810;8.810;2023-10-08T18:46:06;20.20;92.10
24232;DHT22;12364;47.810;8.810;2023-10-08T18:48:35;20.20;92.20
24232;DHT22;12364;47.810;8.810;2023-10-08T18:51:08;20.20;92.20
24232;DHT22;12364;47.810;8.810;2023-10-08T18:53:35;20.10;92.20
24232;DHT22;12364;47.810;8.810;2023-10-08T18:56:03;20.10;92.20
24232;DHT22;12364;47.810;8.810;2023-10-08T18:58:31;20.00;92.30
24232;DHT22;12364;47.810;8.810;2023-10-08T19:00:59;20.00;92.30
24232;DHT22;12364;47.810;8.810;2023-10-08T19:03:26;19.90;92.20
24232;DHT22;12364;47.810;8.810;2023-10-08T19:05:53;19.90;92.20
24232;DHT22;12364;47.810;8.810;2023-10-08T19:08:23;19.90;92.30
24232;DHT22;12364;47.810;8.810;2023-10-08T19:10:52;19.90;92.30
24232;DHT22;12364;47.810;8.810;2023-10-08T19:13:21;19.90;92.30
24232;DHT22;12364;47.810;8.810;2023-10-08T19:15:49;19.80;92.30
24232;DHT22;12364;47.810;8.810;2023-10-08T19:18:16;19.80;92.60
24232;DHT22;12364;47.810;8.810;2023-10-08T19:20:44;19.70;92.30
24232;DHT22;12364;47.810;8.810;2023-10-08T19:23:12;19.70;92.30
24232;DHT22;12364;47.810;8.810;2023-10-08T19:25:39;19.60;92.30
24232;DHT22;12364;47.810;8.810;2023-10-08T19:28:07;19.60;92.30
24232;DHT22;12364;47.810;8.810;2023-10-08T19:30:35;19.60;92.40
24232;DHT22;12364;47.810;8.810;2023-10-08T19:33:03;19.50;92.50
24232;DHT22;12364;47.810;8.810;2023-10-08T19:35:30;19.50;92.60
24232;DHT22;12364;47.810;8.810;2023-10-08T19:37:58;19.50;92.50
24232;DHT22;12364;47.810;8.810;2023-10-08T19:40:24;19.40;92.40
24232;DHT22;12364;47.810;8.810;2023-10-08T19:42:53;19.40;92.40
24232;DHT22;12364;47.810;8.810;2023-10-08T19:45:20;19.40;92.40
24232;DHT22;12364;47.810;8.810;2023-10-08T19:47:47;19.30;92.40
24232;DHT22;12364;47.810;8.810;2023-10-08T19:50:15;19.30;92.50
24232;DHT22;12364;47.810;8.810;2023-10-08T19:52:42;19.30;92.40
24232;DHT22;12364;47.810;8.810;2023-10-08T19:55:10;19.30;92.40
24232;DHT22;12364;47.810;8.810;2023-10-08T19:57:38;19.30;92.40
24232;DHT22;12364;47.810;8.810;2023-10-08T20:00:07;19.20;92.40
24232;DHT22;12364;47.810;8.810;2023-10-08T20:02:43;19.20;92.40
24232;DHT22;12364;47.810;8.810;2023-10-08T20:05:11;19.20;92.30
24232;DHT22;12364;47.810;8.810;2023-10-08T20:07:41;19.20;92.30
24232;DHT22;12364;47.810;8.810;2023-10-08T20:10:11;19.10;92.40
24232;DHT22;12364;47.810;8.810;2023-10-08T20:12:44;19.10;92.30
24232;DHT22;12364;47.810;8.810;2023-10-08T20:15:13;19.10;92.20
24232;DHT22;12364;47.810;8.810;2023-10-08T20:17:43;19.00;92.10
24232;DHT22;12364;47.810;8.810;2023-10-08T20:20:11;19.00;92.20
24232;DHT22;12364;47.810;8.810;2023-10-08T20:22:47;19.00;92.20
24232;DHT22;12364;47.810;8.810;2023-10-08T20:25:18;19.00;92.20
24232;DHT22;12364;47.810;8.810;2023-10-08T20:27:45;18.90;92.20